Time,TemperatureF,DewpointF,PressureIn,WindDirection,WindDirectionDegrees,WindSpeedMPH,WindSpeedGustMPH,Humidity,HourlyPrecipIn,Conditions,Clouds,dailyrainin,SolarRadiationWatts/m^2,SoftwareType,DateUTC
2013-08-05 00:10:00,55.7,54.0,29.98,West,272,0.0,3.0,92,0.00,,,0.00,0,weatherlink.com 1.10,2013-08-05 07:10:00,
2013-08-05 00:24:00,55.8,54.0,29.99,NNW,331,0.0,1.0,92,0.00,,,0.00,0,weatherlink.com 1.10,2013-08-05 07:24:00,
2013-08-05 00:40:00,55.8,54.0,29.98,NNW,330,0.0,3.0,92,0.00,,,0.00,0,weatherlink.com 1.10,2013-08-05 07:40:00,
2013-08-05 00:55:00,55.7,54.0,29.98,WSW,247,0.0,3.0,92,0.00,,,0.00,0,weatherlink.com 1.10,2013-08-05 07:55:00,
2013-08-05 01:10:00,55.4,53.0,29.98,WSW,247,0.0,1.0,92,0.00,,,0.00,0,weatherlink.com 1.10,2013-08-05 08:10:00,
2013-08-05 01:25:00,55.3,53.0,29.98,WSW,238,0.0,2.0,93,0.00,,,0.00,0,weatherlink.com 1.10,2013-08-05 08:25:00,
2013-08-05 01:40:00,55.3,53.0,29.98,WSW,241,0.0,3.0,93,0.00,,,0.00,0,weatherlink.com 1.10,2013-08-05 08:40:00,
2013-08-05 02:10:00,54.6,52.0,29.98,West,261,0.0,5.0,92,0.00,,,0.00,0,weatherlink.com 1.10,2013-08-05 09:10:00,
2013-08-05 02:25:00,54.5,53.0,29.98,West,261,0.0,1.0,93,0.00,,,0.00,0,weatherlink.com 1.10,2013-08-05 09:25:00,
2013-08-05 02:40:00,54.7,53.0,29.97,West,261,0.0,2.0,93,0.00,,,0.00,0,weatherlink.com 1.10,2013-08-05 09:40:00,
2013-08-05 02:55:00,54.8,53.0,29.97,West,261,0.0,1.0,93,0.00,,,0.00,0,weatherlink.com 1.10,2013-08-05 09:55:00,
2013-08-05 03:25:00,54.9,53.0,29.97,NNW,342,0.0,2.0,93,0.00,,,0.00,0,weatherlink.com 1.10,2013-08-05 10:25:00,
2013-08-05 03:55:00,55.0,53.0,29.97,North,349,0.0,2.0,93,0.00,,,0.00,0,weatherlink.com 1.10,2013-08-05 10:55:00,
2013-08-05 04:10:00,54.8,53.0,29.97,NW,321,0.0,1.0,93,0.00,,,0.00,0,weatherlink.com 1.10,2013-08-05 11:10:00,
2013-08-05 04:25:00,55.0,53.0,29.97,NW,321,0.0,0.0,93,0.00,,,0.00,0,weatherlink.com 1.10,2013-08-05 11:25:00,
2013-08-05 04:40:00,55.0,53.0,29.97,NW,321,0.0,1.0,93,0.00,,,0.00,0,weatherlink.com 1.10,2013-08-05 11:40:00,
2013-08-05 04:55:00,55.0,53.0,29.97,NW,321,0.0,1.0,93,0.00,,,0.00,0,weatherlink.com 1.10,2013-08-05 11:55:00,
2013-08-05 05:10:00,54.7,53.0,29.97,NW,321,0.0,2.0,92,0.00,,,0.00,0,weatherlink.com 1.10,2013-08-05 12:10:00,
2013-08-05 05:25:00,54.7,53.0,29.98,NW,321,0.0,2.0,92,0.00,,,0.00,0,weatherlink.com 1.10,2013-08-05 12:25:00,
2013-08-05 05:40:00,54.4,53.0,29.98,NNE,17,0.0,1.0,93,0.00,,,0.00,0,weatherlink.com 1.10,2013-08-05 12:40:00,
2013-08-05 06:10:00,54.2,52.0,29.98,NW,319,0.0,1.0,93,0.00,,,0.00,0,weatherlink.com 1.10,2013-08-05 13:10:00,
2013-08-05 06:25:00,54.2,52.0,29.99,NW,312,0.0,1.0,93,0.00,,,0.00,0,weatherlink.com 1.10,2013-08-05 13:25:00,
2013-08-05 06:40:00,54.4,52.0,29.99,NW,310,0.0,2.0,92,0.00,,,0.00,5,weatherlink.com 1.10,2013-08-05 13:40:00,
2013-08-05 06:55:00,54.5,53.0,29.99,NW,310,0.0,1.0,93,0.00,,,0.00,11,weatherlink.com 1.10,2013-08-05 13:55:00,
2013-08-05 07:25:00,54.8,53.0,30.00,WNW,286,0.0,2.0,93,0.00,,,0.00,37,weatherlink.com 1.10,2013-08-05 14:25:00,
2013-08-05 07:40:00,55.0,53.0,30.00,West,277,0.0,1.0,93,0.00,,,0.00,40,weatherlink.com 1.10,2013-08-05 14:40:00,
2013-08-05 07:55:00,55.1,53.0,30.00,WNW,284,1.0,2.0,93,0.00,,,0.00,56,weatherlink.com 1.10,2013-08-05 14:55:00,
2013-08-05 08:40:00,56.4,54.0,30.00,West,279,0.0,1.0,91,0.00,,,0.00,100,weatherlink.com 1.10,2013-08-05 15:40:00,
2013-08-05 08:55:00,56.6,54.0,30.01,West,280,0.0,2.0,89,0.00,,,0.00,179,weatherlink.com 1.10,2013-08-05 15:55:00,
2013-08-05 09:10:00,57.2,54.0,30.01,NNE,16,0.0,2.0,88,0.00,,,0.00,135,weatherlink.com 1.10,2013-08-05 16:10:00,
2013-08-05 09:25:00,57.5,54.0,30.01,West,274,0.0,1.0,88,0.00,,,0.00,204,weatherlink.com 1.10,2013-08-05 16:25:00,
2013-08-05 09:41:00,58.6,55.0,30.01,WNW,288,1.0,2.0,86,0.00,,,0.00,246,weatherlink.com 1.10,2013-08-05 16:41:00,
2013-08-05 09:56:00,59.3,55.0,30.01,WSW,243,0.0,4.0,84,0.00,,,0.00,397,weatherlink.com 1.10,2013-08-05 16:56:00,
2013-08-05 10:11:00,60.9,54.0,30.01,NW,322,1.0,5.0,79,0.00,,,0.00,686,weatherlink.com 1.10,2013-08-05 17:11:00,
2013-08-05 10:26:00,62.7,55.0,30.01,West,259,1.0,4.0,76,0.00,,,0.00,733,weatherlink.com 1.10,2013-08-05 17:26:00,
2013-08-05 10:40:00,65.6,56.0,30.01,ENE,61,0.0,3.0,71,0.00,,,0.00,770,weatherlink.com 1.10,2013-08-05 17:40:00,
2013-08-05 10:56:00,65.1,55.0,30.01,WNW,294,0.0,3.0,69,0.00,,,0.00,802,weatherlink.com 1.10,2013-08-05 17:56:00,
2013-08-05 11:11:00,65.5,55.0,30.01,WSW,250,4.0,5.0,69,0.00,,,0.00,826,weatherlink.com 1.10,2013-08-05 18:11:00,
2013-08-05 12:56:00,71.3,55.0,29.99,NNW,328,3.0,4.0,56,0.00,,,0.00,930,weatherlink.com 1.10,2013-08-05 19:56:00,
2013-08-05 13:11:00,71.3,54.0,29.99,West,269,0.0,4.0,55,0.00,,,0.00,926,weatherlink.com 1.10,2013-08-05 20:11:00,
2013-08-05 13:26:00,70.6,55.0,29.99,West,281,0.0,4.0,58,0.00,,,0.00,921,weatherlink.com 1.10,2013-08-05 20:26:00,
2013-08-05 13:41:00,71.6,55.0,29.98,West,279,1.0,5.0,57,0.00,,,0.00,918,weatherlink.com 1.10,2013-08-05 20:41:00,
2013-08-05 13:56:00,72.1,55.0,29.98,NNW,344,0.0,3.0,56,0.00,,,0.00,598,weatherlink.com 1.10,2013-08-05 20:56:00,
2013-08-05 14:26:00,72.7,56.0,29.97,West,259,1.0,3.0,56,0.00,,,0.00,42,weatherlink.com 1.10,2013-08-05 21:26:00,
2013-08-05 14:56:00,72.4,55.0,29.96,West,278,3.0,4.0,55,0.00,,,0.00,258,weatherlink.com 1.10,2013-08-05 21:56:00,
2013-08-05 15:11:00,72.1,55.0,29.96,West,275,1.0,5.0,56,0.00,,,0.00,56,weatherlink.com 1.10,2013-08-05 22:11:00,
2013-08-05 15:56:00,72.0,55.0,29.95,WSW,253,2.0,3.0,55,0.00,,,0.00,40,weatherlink.com 1.10,2013-08-05 22:56:00,
2013-08-05 16:11:00,71.2,55.0,29.95,WSW,258,0.0,4.0,56,0.00,,,0.00,37,weatherlink.com 1.10,2013-08-05 23:11:00,
2013-08-05 16:27:00,71.4,54.0,29.94,WSW,239,2.0,3.0,55,0.00,,,0.00,28,weatherlink.com 1.10,2013-08-05 23:27:00,
2013-08-05 16:42:00,70.7,54.0,29.94,NW,304,0.0,3.0,55,0.00,,,0.00,26,weatherlink.com 1.10,2013-08-05 23:42:00,
2013-08-05 16:57:00,71.1,54.0,29.93,West,267,2.0,3.0,55,0.00,,,0.00,28,weatherlink.com 1.10,2013-08-05 23:57:00,
2013-08-05 17:27:00,69.1,53.0,29.92,WSW,241,3.0,4.0,57,0.00,,,0.00,23,weatherlink.com 1.10,2013-08-06 00:27:00,
2013-08-05 17:57:00,67.7,53.0,29.92,NE,56,0.0,3.0,60,0.00,,,0.00,19,weatherlink.com 1.10,2013-08-06 00:57:00,
2013-08-05 18:12:00,67.7,53.0,29.92,NE,51,0.0,3.0,60,0.00,,,0.00,18,weatherlink.com 1.10,2013-08-06 01:12:00,
2013-08-05 18:27:00,66.3,53.0,29.93,West,263,0.0,2.0,63,0.00,,,0.00,18,weatherlink.com 1.10,2013-08-06 01:27:00,
2013-08-05 18:42:00,65.2,53.0,29.93,WSW,256,0.0,3.0,64,0.00,,,0.00,16,weatherlink.com 1.10,2013-08-06 01:42:00,
2013-08-05 18:57:00,62.9,53.0,29.93,NE,48,0.0,2.0,69,0.00,,,0.00,14,weatherlink.com 1.10,2013-08-06 01:57:00,
2013-08-05 19:12:00,62.0,52.0,29.93,NW,323,0.0,2.0,71,0.00,,,0.00,12,weatherlink.com 1.10,2013-08-06 02:12:00,
2013-08-05 19:27:00,61.0,52.0,29.93,West,261,1.0,4.0,73,0.00,,,0.00,11,weatherlink.com 1.10,2013-08-06 02:27:00,
2013-08-05 19:42:00,59.3,52.0,29.93,West,275,1.0,2.0,76,0.00,,,0.00,9,weatherlink.com 1.10,2013-08-06 02:42:00,
2013-08-05 19:57:00,58.2,51.0,29.93,SW,234,0.0,2.0,78,0.00,,,0.00,5,weatherlink.com 1.10,2013-08-06 02:57:00,
2013-08-05 20:12:00,57.1,51.0,29.95,North,355,1.0,4.0,81,0.00,,,0.00,0,weatherlink.com 1.10,2013-08-06 03:12:00,
2013-08-05 20:42:00,55.3,51.0,29.95,WNW,286,1.0,3.0,86,0.00,,,0.00,0,weatherlink.com 1.10,2013-08-06 03:42:00,
2013-08-05 20:57:00,55.0,51.0,29.95,WNW,286,0.0,2.0,87,0.00,,,0.00,0,weatherlink.com 1.10,2013-08-06 03:57:00,
2013-08-05 21:12:00,54.6,51.0,29.96,WNW,286,0.0,1.0,87,0.00,,,0.00,0,weatherlink.com 1.10,2013-08-06 04:12:00,
2013-08-05 21:27:00,54.3,51.0,29.97,ENE,65,0.0,2.0,89,0.00,,,0.00,0,weatherlink.com 1.10,2013-08-06 04:27:00,
2013-08-05 21:42:00,54.2,51.0,29.97,WNW,282,0.0,2.0,89,0.00,,,0.00,0,weatherlink.com 1.10,2013-08-06 04:42:00,
2013-08-05 21:57:00,54.2,51.0,29.97,WNW,283,0.0,2.0,90,0.00,,,0.00,0,weatherlink.com 1.10,2013-08-06 04:57:00,
2013-08-05 22:12:00,54.0,51.0,29.97,North,355,0.0,1.0,90,0.00,,,0.00,0,weatherlink.com 1.10,2013-08-06 05:12:00,
2013-08-05 22:27:00,53.6,51.0,29.97,NE,40,0.0,2.0,91,0.00,,,0.00,0,weatherlink.com 1.10,2013-08-06 05:27:00,
2013-08-05 22:42:00,53.4,51.0,29.97,NE,55,0.0,5.0,91,0.00,,,0.00,0,weatherlink.com 1.10,2013-08-06 05:42:00,
2013-08-05 22:57:00,53.5,51.0,29.97,NE,39,2.0,4.0,91,0.00,,,0.00,0,weatherlink.com 1.10,2013-08-06 05:57:00,
2013-08-05 23:12:00,53.7,51.0,29.97,NE,38,0.0,2.0,91,0.00,,,0.00,0,weatherlink.com 1.10,2013-08-06 06:12:00,
2013-08-05 23:27:00,53.5,51.0,29.96,NNW,339,0.0,2.0,91,0.00,,,0.00,0,weatherlink.com 1.10,2013-08-06 06:27:00,
2013-08-05 23:42:00,53.3,51.0,29.96,NW,306,2.0,4.0,91,0.00,,,0.00,0,weatherlink.com 1.10,2013-08-06 06:42:00,
2013-08-05 23:57:00,53.1,51.0,29.97,West,266,1.0,3.0,92,0.00,,,0.00,0,weatherlink.com 1.10,2013-08-06 06:57:00,